createdAt,value
2022-12-19T00:00:14.979Z,101308.09
2022-12-19T00:02:42.722Z,101327.78
2022-12-19T00:05:11.413Z,101343.38
2022-12-19T00:07:39.538Z,101331.88
2022-12-19T00:10:07.694Z,101326.97
2022-12-19T00:12:35.117Z,101314.63
2022-12-19T00:15:02.663Z,101313.84
2022-12-19T00:17:30.296Z,101320.97
2022-12-19T00:19:58.042Z,101321.22
2022-12-19T00:22:25.710Z,101318.22
2022-12-19T00:24:52.979Z,101317.13
2022-12-19T00:27:20.589Z,101315.22
2022-12-19T00:29:48.531Z,101319.88
2022-12-19T00:32:16.691Z,101311.09
2022-12-19T00:34:44.240Z,101310.81
2022-12-19T00:37:12.231Z,101304.25
2022-12-19T00:39:39.993Z,101305.34
2022-12-19T00:42:07.464Z,101301.22
2022-12-19T00:44:34.745Z,101295.22
2022-12-19T00:47:02.591Z,101283.16
2022-12-19T00:49:31.159Z,101281.25
2022-12-19T00:52:00.043Z,101280.16
2022-12-19T00:54:27.408Z,101276.31
2022-12-19T00:56:55.587Z,101270.03
2022-12-19T00:59:26.862Z,101274.97
2022-12-19T01:01:57.864Z,101268.66
2022-12-19T01:04:28.905Z,101276.34
2022-12-19T01:07:01.864Z,101269.78
2022-12-19T01:09:34.625Z,101273.59
2022-12-19T01:12:24.341Z,101276.63
2022-12-19T01:15:04.858Z,101276.59
2022-12-19T01:17:43.807Z,101277.69
2022-12-19T01:20:22.224Z,101277.44
2022-12-19T01:23:00.234Z,101281.56
2022-12-19T01:25:28.945Z,101274.16
2022-12-19T01:27:57.372Z,101277.16
2022-12-19T01:30:25.007Z,101273.03
2022-12-19T01:32:53.700Z,101274.16
2022-12-19T01:35:22.233Z,101274.97
2022-12-19T01:37:51.326Z,101281.50
2022-12-19T01:40:19.908Z,101273.28
2022-12-19T01:42:49.182Z,101274.91
2022-12-19T01:45:17.352Z,101269.97
2022-12-19T01:48:10.615Z,101267.78
2022-12-19T01:50:42.965Z,101260.38
2022-12-19T01:53:48.942Z,101265.03
2022-12-19T01:56:24.907Z,101265.59
2022-12-19T01:58:56.120Z,101262.56
2022-12-19T02:01:50.919Z,101268.63
2022-12-19T02:04:25.545Z,101279.56
2022-12-19T02:06:55.361Z,101282.47
2022-12-19T02:09:25.188Z,101283.28
2022-12-19T02:11:53.822Z,101273.69
2022-12-19T02:14:21.782Z,101266.59
2022-12-19T02:16:52.716Z,101258.88
2022-12-19T02:19:52.536Z,101272.63
2022-12-19T02:22:34.595Z,101266.03
2022-12-19T02:25:05.262Z,101269.59
2022-12-19T02:28:01.852Z,101264.97
2022-12-19T02:30:36.087Z,101262.78
2022-12-19T02:33:08.690Z,101271.00
2022-12-19T02:35:41.247Z,101272.59
2022-12-19T02:38:28.676Z,101272.59
2022-12-19T02:41:01.577Z,101274.59
2022-12-19T02:43:31.491Z,101275.41
2022-12-19T02:45:59.892Z,101265.00
2022-12-19T02:48:27.780Z,101267.75
2022-12-19T02:50:55.355Z,101269.88
2022-12-19T02:53:23.931Z,101267.75
2022-12-19T02:56:21.426Z,101265.28
2022-12-19T02:59:23.647Z,101260.88
2022-12-19T03:02:04.302Z,101256.97
2022-12-19T03:04:47.771Z,101262.47
2022-12-19T03:07:37.678Z,101262.41
2022-12-19T03:10:15.108Z,101266.03
2022-12-19T03:13:00.816Z,101258.34
2022-12-19T03:15:28.710Z,101263.78
2022-12-19T03:17:58.221Z,101264.94
2022-12-19T03:20:28.800Z,101266.00
2022-12-19T03:22:56.133Z,101264.88
2022-12-19T03:25:24.358Z,101265.09
2022-12-19T03:27:53.300Z,101268.72
2022-12-19T03:30:21.086Z,101275.63
2022-12-19T03:32:48.846Z,101248.72
2022-12-19T03:35:20.843Z,101250.59
2022-12-19T03:37:50.478Z,101247.31
2022-12-19T03:40:20.368Z,101256.09
2022-12-19T03:43:06.472Z,101250.13
2022-12-19T03:45:40.169Z,101249.59
2022-12-19T03:48:11.258Z,101252.28
2022-12-19T03:50:50.859Z,101245.16
2022-12-19T03:53:30.663Z,101249.78
2022-12-19T03:56:30.135Z,101247.81
2022-12-19T03:59:08.921Z,101248.91
2022-12-19T04:01:36.832Z,101255.97
2022-12-19T04:04:05.094Z,101257.94
2022-12-19T04:06:33.768Z,101253.91
2022-12-19T04:09:01.452Z,101260.34
2022-12-19T04:11:34.069Z,101262.56
2022-12-19T04:14:04.655Z,101261.50
2022-12-19T04:17:10.504Z,101269.19
2022-12-19T04:19:44.086Z,101264.81
2022-12-19T04:23:04.170Z,101272.13
2022-12-19T04:25:35.651Z,101275.41
2022-12-19T04:28:06.066Z,101274.63
2022-12-19T04:30:36.825Z,101268.03
2022-12-19T04:33:04.598Z,101271.06
2022-12-19T04:35:32.686Z,101264.75
2022-12-19T04:38:00.416Z,101269.38
2022-12-19T04:40:28.393Z,101270.53
2022-12-19T04:42:55.872Z,101264.75
2022-12-19T04:45:23.378Z,101265.25
2022-12-19T04:47:51.152Z,101266.09
2022-12-19T04:50:18.937Z,101266.28
2022-12-19T04:52:46.523Z,101270.06
2022-12-19T04:55:13.940Z,101264.84
2022-12-19T04:57:41.392Z,101266.34
2022-12-19T05:00:09.782Z,101265.13
2022-12-19T05:02:38.418Z,101263.28
2022-12-19T05:05:06.148Z,101255.28
2022-12-19T05:07:33.637Z,101254.13
2022-12-19T05:10:01.787Z,101253.59
2022-12-19T05:12:29.731Z,101249.72
2022-12-19T05:14:57.056Z,101256.03
2022-12-19T05:17:24.530Z,101252.88
2022-12-19T05:19:52.098Z,101256.56
2022-12-19T05:22:19.644Z,101255.97
2022-12-19T05:24:47.122Z,101258.53
2022-12-19T05:27:15.717Z,101246.97
2022-12-19T05:29:43.325Z,101250.59
2022-12-19T05:32:10.769Z,101249.22
2022-12-19T05:34:38.175Z,101259.31
2022-12-19T05:37:05.582Z,101255.09
2022-12-19T05:39:32.976Z,101264.31
2022-12-19T05:42:00.850Z,101266.31
2022-12-19T05:44:28.469Z,101265.91
2022-12-19T05:46:55.814Z,101275.16
2022-12-19T05:49:23.164Z,101263.94
2022-12-19T05:51:52.319Z,101267.00
2022-12-19T05:54:19.902Z,101262.03
2022-12-19T05:56:47.215Z,101254.28
2022-12-19T05:59:14.555Z,101268.31
2022-12-19T06:01:42.633Z,101261.88
2022-12-19T06:04:10.382Z,101260.38
2022-12-19T06:06:38.149Z,101271.09
2022-12-19T06:09:05.521Z,101273.25
2022-12-19T06:11:33.156Z,101265.06
2022-12-19T06:14:00.933Z,101268.69
2022-12-19T06:16:28.657Z,101270.19
2022-12-19T06:18:56.082Z,101258.63
2022-12-19T06:21:23.730Z,101267.13
2022-12-19T06:23:51.741Z,101271.41
2022-12-19T06:26:20.784Z,101269.44
2022-12-19T06:28:49.408Z,101264.41
2022-12-19T06:31:19.180Z,101251.53
2022-12-19T06:33:46.826Z,101258.94
2022-12-19T06:36:20.216Z,101255.81
2022-12-19T06:38:48.966Z,101258.03
2022-12-19T06:41:35.945Z,101253.72
2022-12-19T06:44:06.319Z,101248.50
2022-12-19T06:46:34.556Z,101251.53
2022-12-19T06:49:02.214Z,101254.88
2022-12-19T06:51:30.230Z,101247.94
2022-12-19T06:53:57.677Z,101240.44
2022-12-19T06:56:25.378Z,101239.59
2022-12-19T06:58:53.077Z,101240.84
2022-12-19T07:01:34.889Z,101245.47
2022-12-19T07:04:02.400Z,101240.28
2022-12-19T07:06:29.981Z,101249.59
2022-12-19T07:08:57.840Z,101253.75
2022-12-19T07:11:25.513Z,101253.81
2022-12-19T07:13:52.852Z,101251.88
2022-12-19T07:16:20.752Z,101249.59
2022-12-19T07:18:49.571Z,101257.25
2022-12-19T07:21:17.189Z,101255.38
2022-12-19T07:23:44.947Z,101269.53
2022-12-19T07:26:12.861Z,101269.75
2022-12-19T07:28:40.767Z,101268.22
2022-12-19T07:31:08.553Z,101272.13
2022-12-19T07:33:35.859Z,101268.47
2022-12-19T07:36:03.228Z,101273.56
2022-12-19T07:38:30.747Z,101278.09
2022-12-19T07:41:01.690Z,101276.59
2022-12-19T07:43:29.268Z,101272.38
2022-12-19T07:45:56.934Z,101268.78
2022-12-19T07:48:24.534Z,101267.13
2022-12-19T07:50:52.055Z,101256.63
2022-12-19T07:53:19.643Z,101269.06
2022-12-19T07:55:50.803Z,101276.53
2022-12-19T07:58:18.436Z,101276.66
2022-12-19T08:00:45.962Z,101276.56
2022-12-19T08:03:13.424Z,101278.13
2022-12-19T08:05:40.948Z,101280.03
2022-12-19T08:08:08.897Z,101288.78
2022-12-19T08:10:36.542Z,101284.94
2022-12-19T08:13:03.812Z,101287.56
2022-12-19T08:15:31.401Z,101287.22
2022-12-19T08:17:59.179Z,101286.91
2022-12-19T08:20:26.737Z,101284.88
2022-12-19T08:22:54.459Z,101283.44
2022-12-19T08:25:21.696Z,101289.75
2022-12-19T08:27:49.166Z,101293.59
2022-12-19T08:30:16.768Z,101293.88
2022-12-19T08:32:45.399Z,101290.44
2022-12-19T08:35:12.832Z,101294.84
2022-12-19T08:37:40.171Z,101292.44
2022-12-19T08:40:08.653Z,101284.50
2022-12-19T08:42:36.241Z,101289.75
2022-12-19T08:45:04.949Z,101285.31
2022-12-19T08:47:35.979Z,101294.94
2022-12-19T08:50:04.561Z,101299.97
2022-12-19T08:52:31.863Z,101294.88
2022-12-19T08:54:59.381Z,101297.34
2022-12-19T08:57:26.938Z,101293.03
2022-12-19T08:59:54.482Z,101288.00
2022-12-19T09:02:24.273Z,101281.03
2022-12-19T09:06:00.270Z,101291.44
2022-12-19T09:07:41.158Z,101280.41
2022-12-19T09:10:08.714Z,101289.03
2022-12-19T09:12:36.050Z,101288.97
2022-12-19T09:15:03.899Z,101287.66
2022-12-19T09:17:31.753Z,101299.09
2022-12-19T09:19:59.141Z,101298.59
2022-12-19T09:22:27.771Z,101290.94
2022-12-19T09:24:59.641Z,101286.75
2022-12-19T09:27:27.203Z,101291.97
2022-12-19T09:29:54.465Z,101292.13
2022-12-19T09:32:22.069Z,101298.22
2022-12-19T09:34:49.912Z,101305.88
2022-12-19T09:37:19.055Z,101307.91
2022-12-19T09:39:47.015Z,101311.00
2022-12-19T09:42:50.598Z,101314.06
2022-12-19T09:45:31.650Z,101318.84
2022-12-19T09:48:02.565Z,101329.69
2022-12-19T09:50:45.792Z,101335.34
2022-12-19T09:53:21.628Z,101343.06
2022-12-19T09:55:52.638Z,101329.09
2022-12-19T09:58:36.815Z,101339.72
2022-12-19T10:01:21.433Z,101324.31
2022-12-19T10:04:00.541Z,101330.81
2022-12-19T10:07:12.467Z,101324.41
2022-12-19T10:11:21.812Z,101320.63
2022-12-19T10:12:44.610Z,101316.44
2022-12-19T10:15:35.772Z,101315.47
2022-12-19T10:18:33.242Z,101307.38
2022-12-19T10:21:11.860Z,101307.59
2022-12-19T10:23:50.171Z,101306.31
2022-12-19T10:26:37.502Z,101300.50
2022-12-19T10:29:35.691Z,101294.41
2022-12-19T10:32:13.293Z,101293.16
2022-12-19T10:34:43.353Z,101295.91
2022-12-19T10:37:26.783Z,101295.38
2022-12-19T10:40:04.802Z,101289.69
2022-12-19T10:42:45.858Z,101285.34
2022-12-19T10:45:19.634Z,101281.25
2022-12-19T10:47:48.666Z,101287.19
2022-12-19T10:50:25.902Z,101287.34
2022-12-19T10:52:56.957Z,101290.19
2022-12-19T10:55:37.051Z,101289.41
2022-12-19T10:58:25.020Z,101283.47
2022-12-19T11:01:00.358Z,101278.97
2022-12-19T11:03:28.260Z,101278.63
2022-12-19T11:05:58.545Z,101265.16
2022-12-19T11:08:33.663Z,101268.38
2022-12-19T11:13:24.753Z,101267.19
2022-12-19T11:17:11.760Z,101273.78
2022-12-19T11:23:16.737Z,101263.28
2022-12-19T11:29:19.132Z,101269.72
2022-12-19T11:29:41.073Z,101256.88
2022-12-19T11:29:45.691Z,101261.06
2022-12-19T11:30:45.728Z,101251.19
2022-12-19T11:34:19.079Z,101253.44
2022-12-19T11:37:05.099Z,101253.03
2022-12-19T11:39:39.321Z,101252.22
2022-12-19T11:42:30.650Z,101240.78
2022-12-19T11:45:11.812Z,101228.97
2022-12-19T11:47:45.427Z,101230.59
2022-12-19T11:50:18.960Z,101228.13
2022-12-19T11:53:16.673Z,101228.25
2022-12-19T11:55:56.403Z,101228.13
2022-12-19T11:58:25.330Z,101221.91
2022-12-19T12:01:05.587Z,101211.06
2022-12-19T12:03:40.191Z,101208.69
2022-12-19T12:06:13.769Z,101204.63
2022-12-19T12:12:10.424Z,101201.75
2022-12-19T12:19:13.728Z,101205.94
2022-12-19T12:21:44.148Z,101192.84
2022-12-19T12:29:49.688Z,101194.19
2022-12-19T12:31:12.421Z,101196.06
2022-12-19T12:31:18.281Z,101186.72
2022-12-19T12:31:46.439Z,101178.81
2022-12-19T12:31:57.406Z,101179.97
2022-12-19T12:35:45.389Z,101162.41
2022-12-19T12:38:00.446Z,101154.34
2022-12-19T12:38:36.067Z,101155.00
2022-12-19T12:41:10.642Z,101162.75
2022-12-19T12:44:02.552Z,101155.09
2022-12-19T12:46:37.331Z,101158.16
2022-12-19T12:49:07.262Z,101146.44
2022-12-19T12:51:37.047Z,101141.88
2022-12-19T12:54:11.123Z,101146.69
2022-12-19T12:56:39.209Z,101144.13
2022-12-19T12:59:22.741Z,101135.22
2022-12-19T13:02:21.410Z,101135.22
2022-12-19T13:05:00.163Z,101124.81
2022-12-19T13:07:42.043Z,101126.94
2022-12-19T13:10:16.677Z,101135.22
2022-12-19T13:13:02.856Z,101134.94
2022-12-19T13:15:32.104Z,101123.63
2022-12-19T13:18:09.425Z,101121.34
2022-12-19T13:20:45.284Z,101114.84
2022-12-19T13:23:32.124Z,101116.16
2022-12-19T13:25:59.587Z,101119.28
2022-12-19T13:28:26.829Z,101120.91
2022-12-19T13:31:20.550Z,101123.63
2022-12-19T13:33:55.145Z,101129.94
2022-12-19T13:39:49.008Z,101137.38
2022-12-19T13:40:11.013Z,101142.63
2022-12-19T13:43:10.435Z,101144.38
2022-12-19T13:45:40.996Z,101141.97
2022-12-19T13:48:16.138Z,101145.03
2022-12-19T13:50:44.430Z,101134.00
2022-12-19T13:53:16.363Z,101133.69
2022-12-19T13:55:43.998Z,101102.16
2022-12-19T13:58:29.736Z,101087.00
2022-12-19T14:01:01.426Z,101107.13
2022-12-19T14:03:38.600Z,101115.75
2022-12-19T14:06:19.621Z,101105.38
2022-12-19T14:09:46.247Z,101102.25
2022-12-19T14:13:44.343Z,101096.22
2022-12-19T14:14:47.345Z,101111.47
2022-12-19T14:17:18.575Z,101104.97
2022-12-19T14:19:48.620Z,101097.75
2022-12-19T14:22:25.441Z,101098.09
2022-12-19T14:25:49.292Z,101101.34
2022-12-19T14:28:23.323Z,101111.56
2022-12-19T14:30:56.483Z,101113.38
2022-12-19T14:33:44.324Z,101113.53
2022-12-19T14:36:25.709Z,101109.81
2022-12-19T14:39:22.152Z,101097.19
2022-12-19T14:42:02.740Z,101101.50
2022-12-19T14:53:52.527Z,101116.16
2022-12-19T14:54:16.485Z,101124.88
2022-12-19T14:54:16.868Z,101133.94
2022-12-19T14:54:35.864Z,101147.31
2022-12-19T14:56:31.073Z,101139.97
2022-12-19T14:59:00.616Z,101152.91
2022-12-19T15:01:30.819Z,101146.00
2022-12-19T15:04:49.127Z,101123.13
2022-12-19T15:07:08.732Z,101117.59
2022-12-19T15:11:03.401Z,101114.34
2022-12-19T15:14:04.097Z,101109.75
2022-12-19T15:15:47.911Z,101108.94
2022-12-19T15:18:19.919Z,101101.09
2022-12-19T15:20:47.287Z,101082.88
2022-12-19T15:23:21.544Z,101093.25
2022-12-19T15:26:07.398Z,101117.19
2022-12-19T15:28:43.098Z,101125.66
2022-12-19T15:31:27.808Z,101120.41
2022-12-19T15:36:42.688Z,101134.78
2022-12-19T15:39:09.958Z,101145.00
2022-12-19T15:41:37.277Z,101120.28
2022-12-19T15:44:20.898Z,101128.91
2022-12-19T15:46:49.484Z,101121.97
2022-12-19T15:49:19.102Z,101114.16
2022-12-19T15:51:47.152Z,101119.50
2022-12-19T15:54:47.272Z,101116.72
2022-12-19T15:57:02.144Z,101099.97
2022-12-19T15:59:37.699Z,101099.78
2022-12-19T16:02:16.529Z,101088.09
2022-12-19T16:04:44.892Z,101096.53
2022-12-19T16:07:19.620Z,101086.75
2022-12-19T16:09:48.101Z,101084.84
2022-12-19T16:12:22.079Z,101074.41
2022-12-19T16:14:55.277Z,101089.06
2022-12-19T16:17:23.988Z,101105.34
2022-12-19T16:19:51.884Z,101087.44
2022-12-19T16:22:22.436Z,101092.84
2022-12-19T16:24:51.056Z,101082.91
2022-12-19T16:27:24.486Z,101085.84
2022-12-19T16:29:52.166Z,101088.44
2022-12-19T16:32:20.295Z,101102.94
2022-12-19T16:34:47.553Z,101111.72
2022-12-19T16:37:15.429Z,101114.84
2022-12-19T16:39:42.710Z,101119.72
2022-12-19T16:42:17.576Z,101123.66
2022-12-19T16:44:48.293Z,101112.44
2022-12-19T16:47:17.723Z,101110.59
2022-12-19T16:49:45.325Z,101110.09
2022-12-19T16:52:12.760Z,101101.59
2022-12-19T16:54:40.406Z,101116.75
2022-12-19T16:57:18.719Z,101119.50
2022-12-19T16:59:46.388Z,101123.56
2022-12-19T17:02:29.132Z,101123.53
2022-12-19T17:04:56.736Z,101121.44
2022-12-19T17:07:24.037Z,101115.44
2022-12-19T17:09:51.468Z,101114.66
2022-12-19T17:12:19.082Z,101100.34
2022-12-19T17:14:46.480Z,101099.16
2022-12-19T17:17:15.500Z,101103.34
2022-12-19T17:19:45.129Z,101097.06
2022-12-19T17:22:14.163Z,101104.03
2022-12-19T17:24:42.144Z,101095.91
2022-12-19T17:27:09.630Z,101091.03
2022-12-19T17:29:36.956Z,101093.16
2022-12-19T17:32:06.794Z,101085.00
2022-12-19T17:34:34.977Z,101081.63
2022-12-19T17:37:04.559Z,101076.72
2022-12-19T17:39:33.105Z,101071.53
2022-12-19T17:42:24.259Z,101057.19
2022-12-19T17:44:51.953Z,101080.63
2022-12-19T17:47:20.868Z,101076.72
2022-12-19T17:49:48.903Z,101073.78
2022-12-19T17:52:18.118Z,101075.56
2022-12-19T17:54:45.694Z,101085.19
2022-12-19T17:57:17.584Z,101085.19
2022-12-19T17:59:46.792Z,101090.56
2022-12-19T18:02:21.676Z,101079.66
2022-12-19T18:04:50.077Z,101090.91
2022-12-19T18:07:19.209Z,101073.44
2022-12-19T18:09:46.756Z,101076.56
2022-12-19T18:12:14.352Z,101078.03
2022-12-19T18:14:41.816Z,101088.16
2022-12-19T18:17:12.357Z,101090.09
2022-12-19T18:19:40.086Z,101086.19
2022-12-19T18:22:14.112Z,101089.78
2022-12-19T18:24:42.055Z,101087.34
2022-12-19T18:27:09.444Z,101099.88
2022-12-19T18:29:37.106Z,101078.22
2022-12-19T18:32:04.628Z,101085.69
2022-12-19T18:34:33.636Z,101092.88
2022-12-19T18:37:02.215Z,101095.94
2022-12-19T18:39:30.758Z,101095.94
2022-12-19T18:41:58.045Z,101091.38
2022-12-19T18:44:25.369Z,101085.19
2022-12-19T18:46:53.039Z,101093.47
2022-12-19T18:49:20.792Z,101099.84
2022-12-19T18:51:48.358Z,101094.81
2022-12-19T18:54:18.937Z,101095.00
2022-12-19T18:56:47.085Z,101102.16
2022-12-19T18:59:14.748Z,101106.22
2022-12-19T19:01:46.938Z,101106.91
2022-12-19T19:04:17.779Z,101112.88
2022-12-19T19:06:50.967Z,101114.88
2022-12-19T19:09:20.472Z,101115.38
2022-12-19T19:12:06.517Z,101110.66
2022-12-19T19:14:33.958Z,101110.78
2022-12-19T19:17:01.587Z,101105.59
2022-12-19T19:19:29.087Z,101099.41
2022-12-19T19:21:56.281Z,101100.69
2022-12-19T19:24:24.049Z,101106.25
2022-12-19T19:26:51.304Z,101102.97
2022-12-19T19:29:19.790Z,101100.72
2022-12-19T19:31:49.847Z,101092.41
2022-12-19T19:34:25.117Z,101082.81
2022-12-19T19:36:56.047Z,101083.28
2022-12-19T19:39:23.922Z,101083.63
2022-12-19T19:41:51.330Z,101078.25
2022-12-19T19:44:18.694Z,101069.63
2022-12-19T19:46:46.228Z,101091.44
2022-12-19T19:49:13.629Z,101088.97
2022-12-19T19:51:41.023Z,101087.00
2022-12-19T19:54:08.349Z,101084.28
2022-12-19T19:56:35.673Z,101084.91
2022-12-19T19:59:03.120Z,101090.59
2022-12-19T20:01:30.589Z,101090.09
2022-12-19T20:03:57.942Z,101101.53
2022-12-19T20:06:25.611Z,101087.16
2022-12-19T20:08:53.007Z,101077.06
2022-12-19T20:11:20.808Z,101085.06
2022-12-19T20:13:48.152Z,101075.28
2022-12-19T20:16:18.106Z,101076.25
2022-12-19T20:18:52.123Z,101064.34
2022-12-19T20:21:20.230Z,101063.19
2022-12-19T20:23:47.570Z,101066.44
2022-12-19T20:26:16.781Z,101059.94
2022-12-19T20:28:49.288Z,101065.16
2022-12-19T20:31:22.562Z,101055.69
2022-12-19T20:33:53.182Z,101063.34
2022-12-19T20:36:20.632Z,101054.72
2022-12-19T20:38:48.550Z,101059.44
2022-12-19T20:41:16.583Z,101064.50
2022-12-19T20:43:44.872Z,101053.38
2022-12-19T20:46:18.138Z,101067.78
2022-12-19T20:48:46.732Z,101062.22
2022-12-19T20:51:15.523Z,101057.47
2022-12-19T20:53:44.970Z,101056.38
2022-12-19T20:56:15.589Z,101067.13
2022-12-19T20:58:43.052Z,101075.59
2022-12-19T21:01:15.986Z,101074.13
2022-12-19T21:03:45.630Z,101063.78
2022-12-19T21:06:18.368Z,101070.69
2022-12-19T21:08:46.128Z,101056.38
2022-12-19T21:11:15.385Z,101064.34
2022-12-19T21:13:43.058Z,101072.34
2022-12-19T21:16:17.457Z,101071.31
2022-12-19T21:18:46.646Z,101059.44
2022-12-19T21:21:16.589Z,101070.06
2022-12-19T21:23:45.542Z,101063.53
2022-12-19T21:26:12.930Z,101062.75
2022-12-19T21:28:40.379Z,101056.72
2022-12-19T21:31:20.141Z,101054.25
2022-12-19T21:33:47.983Z,101054.38
2022-12-19T21:36:20.806Z,101046.72
2022-12-19T21:38:49.937Z,101051.66
2022-12-19T21:41:19.239Z,101038.59
2022-12-19T21:43:53.574Z,101036.94
2022-12-19T21:46:27.340Z,101030.41
2022-12-19T21:48:57.092Z,101027.44
2022-12-19T21:51:31.896Z,101022.56
2022-12-19T21:54:01.888Z,101025.34
2022-12-19T21:56:40.300Z,101025.00
2022-12-19T21:59:13.578Z,101010.03
2022-12-19T22:01:42.735Z,101013.09
2022-12-19T22:04:16.448Z,101015.22
2022-12-19T22:06:44.465Z,101013.25
2022-12-19T22:09:25.227Z,101008.28
2022-12-19T22:11:56.277Z,101007.69
2022-12-19T22:14:23.881Z,101014.72
2022-12-19T22:17:02.639Z,101017.81
2022-12-19T22:19:30.154Z,101003.63
2022-12-19T22:21:57.670Z,101009.59
2022-12-19T22:24:27.746Z,101001.72
2022-12-19T22:26:57.380Z,100990.06
2022-12-19T22:29:24.800Z,100994.72
2022-12-19T22:31:52.472Z,100994.22
2022-12-19T22:34:21.401Z,100980.16
2022-12-19T22:36:49.300Z,100972.88
2022-12-19T22:39:20.276Z,100964.22
2022-12-19T22:41:47.763Z,100967.47
2022-12-19T22:44:21.245Z,100979.75
2022-12-19T22:46:49.603Z,100967.03
2022-12-19T22:49:17.710Z,100959.06
2022-12-19T22:51:45.424Z,100959.16
2022-12-19T22:54:13.595Z,100950.22
2022-12-19T22:56:41.762Z,100946.19
2022-12-19T22:59:11.140Z,100951.22
2022-12-19T23:01:42.442Z,100950.75
2022-12-19T23:04:12.965Z,100956.94
2022-12-19T23:06:42.332Z,100953.66
2022-12-19T23:09:14.185Z,100952.53
2022-12-19T23:11:44.157Z,100948.66
2022-12-19T23:14:14.646Z,100955.16
2022-12-19T23:16:44.020Z,100937.91
2022-12-19T23:19:12.250Z,100946.88
2022-12-19T23:21:39.524Z,100943.75
2022-12-19T23:24:07.323Z,100944.88
2022-12-19T23:26:37.054Z,100940.22
2022-12-19T23:29:07.803Z,100937.31
2022-12-19T23:31:35.384Z,100943.78
2022-12-19T23:34:02.844Z,100939.63
2022-12-19T23:37:08.854Z,100941.34
2022-12-19T23:39:17.663Z,100947.56
2022-12-19T23:41:44.952Z,100952.59
2022-12-19T23:44:12.610Z,100940.56
2022-12-19T23:46:41.403Z,100952.97
2022-12-19T23:49:08.717Z,100952.66
2022-12-19T23:51:36.239Z,100938.16
2022-12-19T23:54:04.358Z,100947.78
2022-12-19T23:56:33.090Z,100940.06
2022-12-19T23:59:00.895Z,100939.94
